Amber, Iowa
Current Conditions -  °F | °C
As of 9:55 PM on Wednesday 26 Nov 2014 (Local Time) from KMXO Reporting Station
Unknown Precip Unknown Precip  
Wind Chill: 17°   Ceiling: 6000
Heat Index: 25°   Visibility: 4mi
Dew Point: 23°   Wind: 7mph
Humidity: 93%   Direction: 330°NNW
Pressure: 30.24"   Gusts: NA
Location:  42.1396°N, 91.2844°W
Report Text: KMXO 270355Z AUTO 33006KT 4SM -UP FEW050 OVC060 M04/M05 A3024 RMK AO2
Loading
Personal Weather Stations






























Interactive Weather Map New forecast layout! Learn more

10-Day Weather Forecast

Advertisements
Track Severe Weather on mobile